Calingasta, Argentina
Current Conditions -  °F | °C
As of 3:00 PM on Saturday 25 Oct 2014 (Local Time) from SAME Reporting Station
Few Clouds Few Clouds  
Wind Chill: 32°   Ceiling: Unl
Heat Index: 32°   Visibility: 6mi
Dew Point: 15°   Wind: 8mph
Humidity: 36%   Direction: 90°E
Pressure: 29.77"   Gusts: NA
Location:  31.32°S, 69.42°W
Report Text: SAME 251800Z 09007KT 9999 FEW040 32/15 Q1008
Loading
Personal Weather Stations






























Interactive Weather Map
Tropical Storm Tracking
New forecast layout! Learn more

10-Day Weather Forecast

Advertisements
Track Severe Weather on mobile